createdAt,value
2023-02-09T00:00:17.025Z,103283.41
2023-02-09T00:02:43.889Z,103280.91
2023-02-09T00:05:11.253Z,103275.63
2023-02-09T00:07:37.769Z,103277.47
2023-02-09T00:10:05.927Z,103283.72
2023-02-09T00:12:51.320Z,103282.88
2023-02-09T00:15:17.866Z,103282.97
2023-02-09T00:17:44.343Z,103280.38
2023-02-09T00:20:11.121Z,103282.16
2023-02-09T00:22:37.774Z,103270.59
2023-02-09T00:25:04.585Z,103276.81
2023-02-09T00:27:32.287Z,103273.28
2023-02-09T00:29:58.862Z,103268.78
2023-02-09T00:32:25.412Z,103265.25
2023-02-09T00:34:51.924Z,103265.19
2023-02-09T00:37:18.422Z,103265.19
2023-02-09T00:39:45.004Z,103262.50
2023-02-09T00:42:11.596Z,103265.19
2023-02-09T00:44:40.587Z,103269.69
2023-02-09T00:47:08.720Z,103279.47
2023-02-09T00:49:35.735Z,103269.75
2023-02-09T00:52:02.775Z,103271.56
2023-02-09T00:54:29.482Z,103275.19
2023-02-09T00:56:56.063Z,103267.31
2023-02-09T00:59:22.601Z,103270.94
2023-02-09T01:01:49.096Z,103268.31
2023-02-09T01:04:15.624Z,103263.06
2023-02-09T01:06:42.191Z,103267.56
2023-02-09T01:09:08.742Z,103263.22
2023-02-09T01:11:35.272Z,103262.38
2023-02-09T01:14:04.379Z,103263.31
2023-02-09T01:16:31.761Z,103266.94
2023-02-09T01:19:00.748Z,103267.88
2023-02-09T01:21:27.698Z,103273.22
2023-02-09T01:23:54.262Z,103260.78
2023-02-09T01:26:21.132Z,103260.88
2023-02-09T01:28:52.958Z,103260.09
2023-02-09T01:31:28.646Z,103251.34
2023-02-09T01:33:56.810Z,103252.16
2023-02-09T01:36:24.862Z,103259.38
2023-02-09T01:38:54.806Z,103246.09
2023-02-09T01:41:21.585Z,103247.06
2023-02-09T01:43:59.083Z,103247.09
2023-02-09T01:46:28.584Z,103249.72
2023-02-09T01:49:17.458Z,103245.38
2023-02-09T01:52:04.742Z,103240.91
2023-02-09T01:54:43.128Z,103246.19
2023-02-09T01:57:20.581Z,103244.44
2023-02-09T01:59:53.560Z,103238.16
2023-02-09T02:02:22.189Z,103228.41
2023-02-09T02:04:49.955Z,103227.53
2023-02-09T02:07:28.051Z,103224.94
2023-02-09T02:09:54.927Z,103217.78
2023-02-09T02:12:23.360Z,103208.91
2023-02-09T02:14:49.939Z,103207.16
2023-02-09T02:17:34.591Z,103211.69
2023-02-09T02:20:19.769Z,103211.59
2023-02-09T02:23:20.469Z,103200.25
2023-02-09T02:26:08.441Z,103207.22
2023-02-09T02:28:45.468Z,103211.78
2023-02-09T02:31:17.904Z,103216.28
2023-02-09T02:34:15.003Z,103215.47
2023-02-09T02:37:15.564Z,103220.06
2023-02-09T02:40:38.150Z,103213.06
2023-02-09T02:43:27.680Z,103220.22
2023-02-09T02:46:10.995Z,103212.25
2023-02-09T02:48:41.556Z,103209.56
2023-02-09T02:51:14.676Z,103211.38
2023-02-09T02:53:45.013Z,103194.59
2023-02-09T02:56:25.750Z,103179.56
2023-02-09T02:58:56.502Z,103182.16
2023-02-09T03:01:27.596Z,103187.53
2023-02-09T03:03:55.529Z,103194.66
2023-02-09T03:06:22.078Z,103175.16
2023-02-09T03:08:56.728Z,103177.94
2023-02-09T03:11:27.767Z,103168.97
2023-02-09T03:13:56.945Z,103167.25
2023-02-09T03:17:02.971Z,103165.59
2023-02-09T03:19:40.078Z,103159.22
2023-02-09T03:22:17.667Z,103160.16
2023-02-09T03:24:55.355Z,103146.06
2023-02-09T03:27:29.318Z,103148.69
2023-02-09T03:29:59.697Z,103146.00
2023-02-09T03:32:27.278Z,103143.41
2023-02-09T03:34:57.239Z,103153.22
2023-02-09T03:37:24.422Z,103152.38
2023-02-09T03:39:50.992Z,103149.69
2023-02-09T03:42:17.524Z,103146.16
2023-02-09T03:44:44.016Z,103154.28
2023-02-09T03:47:10.566Z,103147.13
2023-02-09T03:49:40.100Z,103140.13
2023-02-09T03:52:09.432Z,103143.75
2023-02-09T03:54:36.904Z,103143.75
2023-02-09T03:57:04.689Z,103143.78
2023-02-09T03:59:35.333Z,103139.41
2023-02-09T04:02:02.185Z,103131.41
2023-02-09T04:04:28.780Z,103130.63
2023-02-09T04:06:56.198Z,103123.47
2023-02-09T04:09:23.354Z,103132.50
2023-02-09T04:11:49.893Z,103124.47
2023-02-09T04:14:16.387Z,103124.47
2023-02-09T04:16:43.184Z,103123.72
2023-02-09T04:19:10.129Z,103132.66
2023-02-09T04:21:38.590Z,103134.47
2023-02-09T04:24:05.992Z,103142.47
2023-02-09T04:26:33.031Z,103140.75
2023-02-09T04:28:59.522Z,103135.56
2023-02-09T04:31:26.159Z,103137.47
2023-02-09T04:33:52.763Z,103136.59
2023-02-09T04:36:19.284Z,103129.50
2023-02-09T04:38:45.813Z,103127.78
2023-02-09T04:41:12.360Z,103124.34
2023-02-09T04:43:38.855Z,103125.22
2023-02-09T04:46:05.405Z,103127.94
2023-02-09T04:48:31.980Z,103131.50
2023-02-09T04:50:58.552Z,103132.28
2023-02-09T04:53:25.526Z,103143.91
2023-02-09T04:55:52.550Z,103142.19
2023-02-09T04:58:39.404Z,103147.59
2023-02-09T05:01:07.149Z,103142.25
2023-02-09T05:03:34.292Z,103140.53
2023-02-09T05:06:03.495Z,103136.13
2023-02-09T05:08:30.270Z,103138.84
2023-02-09T05:10:57.118Z,103153.06
2023-02-09T05:13:25.407Z,103144.28
2023-02-09T05:15:52.192Z,103138.00
2023-02-09T05:18:18.846Z,103152.31
2023-02-09T05:20:46.146Z,103156.69
2023-02-09T05:23:13.270Z,103166.53
2023-02-09T05:25:40.298Z,103172.66
2023-02-09T05:28:07.162Z,103167.38
2023-02-09T05:30:34.151Z,103170.91
2023-02-09T05:33:00.674Z,103160.16
2023-02-09T05:35:27.213Z,103161.97
2023-02-09T05:37:53.730Z,103154.81
2023-02-09T05:40:20.273Z,103165.50
2023-02-09T05:42:46.776Z,103173.44
2023-02-09T05:45:13.387Z,103170.84
2023-02-09T05:47:39.889Z,103177.91
2023-02-09T05:50:06.549Z,103165.50
2023-02-09T05:52:33.114Z,103178.00
2023-02-09T05:54:59.608Z,103178.91
2023-02-09T05:57:26.123Z,103173.59
2023-02-09T05:59:52.982Z,103177.19
2023-02-09T06:02:19.636Z,103181.69
2023-02-09T06:04:46.215Z,103186.16
2023-02-09T06:07:12.694Z,103193.31
2023-02-09T06:09:39.193Z,103204.91
2023-02-09T06:12:05.826Z,103201.47
2023-02-09T06:14:32.298Z,103188.19
2023-02-09T06:16:59.231Z,103183.78
2023-02-09T06:19:25.739Z,103183.88
2023-02-09T06:21:52.213Z,103182.16
2023-02-09T06:24:18.777Z,103192.88
2023-02-09T06:26:45.492Z,103201.94
2023-02-09T06:29:12.019Z,103213.53
2023-02-09T06:31:38.752Z,103215.34
2023-02-09T06:34:05.837Z,103225.25
2023-02-09T06:36:32.769Z,103226.09
2023-02-09T06:38:59.294Z,103225.31
2023-02-09T06:41:25.932Z,103226.25
2023-02-09T06:43:52.415Z,103225.47
2023-02-09T06:46:18.949Z,103220.13
2023-02-09T06:48:45.516Z,103226.38
2023-02-09T06:51:14.186Z,103222.88
2023-02-09T06:53:42.958Z,103222.88
2023-02-09T06:56:11.261Z,103220.19
2023-02-09T06:58:39.985Z,103212.28
2023-02-09T07:01:09.948Z,103208.66
2023-02-09T07:03:37.522Z,103210.47
2023-02-09T07:06:09.138Z,103204.25
2023-02-09T07:08:36.689Z,103198.97
2023-02-09T07:11:08.769Z,103215.06
2023-02-09T07:13:35.712Z,103223.91
2023-02-09T07:16:04.349Z,103211.47
2023-02-09T07:18:30.956Z,103195.63
2023-02-09T07:20:59.492Z,103197.34
2023-02-09T07:23:26.678Z,103188.53
2023-02-09T07:25:53.488Z,103184.13
2023-02-09T07:28:20.753Z,103185.00
2023-02-09T07:30:52.189Z,103185.94
2023-02-09T07:33:19.600Z,103199.19
2023-02-09T07:35:47.205Z,103209.88
2023-02-09T07:38:14.106Z,103202.72
2023-02-09T07:40:46.450Z,103193.88
2023-02-09T07:43:13.956Z,103200.06
2023-02-09T07:45:41.500Z,103211.63
2023-02-09T07:48:10.239Z,103218.69
2023-02-09T07:50:37.006Z,103219.56
2023-02-09T07:53:03.591Z,103212.41
2023-02-09T07:55:30.233Z,103222.13
2023-02-09T07:57:57.010Z,103227.47
2023-02-09T08:00:24.325Z,103224.75
2023-02-09T08:02:51.079Z,103228.28
2023-02-09T08:05:25.919Z,103219.34
2023-02-09T08:07:52.908Z,103207.69
2023-02-09T08:10:19.869Z,103212.13
2023-02-09T08:13:02.575Z,103211.19
2023-02-09T08:15:38.284Z,103211.19
2023-02-09T08:18:12.826Z,103227.19
2023-02-09T08:20:40.218Z,103225.31
2023-02-09T08:23:14.367Z,103215.47
2023-02-09T08:25:41.055Z,103208.41
2023-02-09T08:28:08.837Z,103208.41
2023-02-09T08:30:35.956Z,103223.50
2023-02-09T08:33:02.472Z,103214.56
2023-02-09T08:35:30.752Z,103206.56
2023-02-09T08:38:02.196Z,103202.94
2023-02-09T08:40:30.020Z,103215.34
2023-02-09T08:42:56.628Z,103210.84
2023-02-09T08:45:23.366Z,103206.47
2023-02-09T08:47:50.124Z,103205.53
2023-02-09T08:50:16.779Z,103202.00
2023-02-09T08:52:43.404Z,103208.19
2023-02-09T08:55:10.165Z,103212.63
2023-02-09T08:57:44.011Z,103211.66
2023-02-09T09:00:11.412Z,103208.13
2023-02-09T09:02:37.919Z,103217.78
2023-02-09T09:05:04.674Z,103224.88
2023-02-09T09:07:31.319Z,103216.69
2023-02-09T09:09:57.839Z,103220.22
2023-02-09T09:12:24.580Z,103212.06
2023-02-09T09:14:51.366Z,103207.53
2023-02-09T09:17:17.908Z,103210.06
2023-02-09T09:19:44.486Z,103210.75
2023-02-09T09:22:11.047Z,103229.28
2023-02-09T09:24:40.694Z,103223.81
2023-02-09T09:27:10.402Z,103224.56
2023-02-09T09:29:40.002Z,103222.63
2023-02-09T09:32:07.766Z,103235.84
2023-02-09T09:34:34.463Z,103243.69
2023-02-09T09:37:00.964Z,103238.25
2023-02-09T09:39:27.514Z,103243.38
2023-02-09T09:41:59.348Z,103246.75
2023-02-09T09:44:44.741Z,103251.97
2023-02-09T09:47:17.394Z,103257.06
2023-02-09T09:49:44.228Z,103251.66
2023-02-09T09:52:18.295Z,103254.97
2023-02-09T09:54:45.281Z,103255.66
2023-02-09T09:57:27.264Z,103254.63
2023-02-09T09:59:55.073Z,103253.53
2023-02-09T10:02:28.712Z,103251.59
2023-02-09T10:05:02.845Z,103253.25
2023-02-09T10:07:32.640Z,103249.47
2023-02-09T10:10:04.876Z,103249.31
2023-02-09T10:12:38.298Z,103252.78
2023-02-09T10:15:37.259Z,103255.38
2023-02-09T10:18:13.040Z,103264.09
2023-02-09T10:20:45.630Z,103257.00
2023-02-09T10:23:21.130Z,103250.72
2023-02-09T10:25:50.710Z,103261.25
2023-02-09T10:28:25.677Z,103271.94
2023-02-09T10:30:54.540Z,103263.94
2023-02-09T10:33:21.199Z,103272.81
2023-02-09T10:36:08.712Z,103274.56
2023-02-09T10:38:39.922Z,103262.13
2023-02-09T10:41:11.292Z,103264.78
2023-02-09T10:43:37.850Z,103270.94
2023-02-09T10:46:13.252Z,103283.34
2023-02-09T10:48:45.639Z,103281.47
2023-02-09T10:51:29.748Z,103282.41
2023-02-09T10:54:00.143Z,103279.66
2023-02-09T10:56:41.780Z,103284.94
2023-02-09T10:59:23.313Z,103288.47
2023-02-09T11:02:01.790Z,103288.31
2023-02-09T11:04:39.858Z,103289.06
2023-02-09T11:07:12.164Z,103290.69
2023-02-09T11:09:50.339Z,103282.47
2023-02-09T11:12:17.223Z,103293.88
2023-02-09T11:14:44.036Z,103298.28
2023-02-09T11:17:17.271Z,103292.84
2023-02-09T11:20:25.906Z,103289.06
2023-02-09T11:23:20.377Z,103289.84
2023-02-09T11:26:04.002Z,103296.06
2023-02-09T11:28:33.523Z,103294.19
2023-02-09T11:31:24.342Z,103294.94
2023-02-09T11:34:28.370Z,103295.75
2023-02-09T11:37:06.976Z,103289.38
2023-02-09T11:39:55.731Z,103291.94
2023-02-09T11:42:45.539Z,103296.28
2023-02-09T11:45:24.201Z,103283.84
2023-02-09T11:48:09.250Z,103274.19
2023-02-09T11:50:56.156Z,103276.66
2023-02-09T11:53:33.416Z,103287.31
2023-02-09T11:56:06.033Z,103281.00
2023-02-09T11:59:08.698Z,103280.03
2023-02-09T12:01:55.370Z,103280.84
2023-02-09T12:04:31.239Z,103270.91
2023-02-09T12:07:02.599Z,103281.59
2023-02-09T12:10:10.989Z,103270.84
2023-02-09T12:12:48.756Z,103269.78
2023-02-09T12:15:22.809Z,103267.03
2023-02-09T12:18:01.137Z,103278.50
2023-02-09T12:20:36.686Z,103268.66
2023-02-09T12:23:15.859Z,103262.38
2023-02-09T12:25:51.671Z,103258.84
2023-02-09T12:28:24.023Z,103252.69
2023-02-09T12:30:51.017Z,103247.34
2023-02-09T12:33:23.254Z,103242.09
2023-02-09T12:36:03.594Z,103241.28
2023-02-09T12:38:51.597Z,103244.94
2023-02-09T12:41:29.267Z,103244.94
2023-02-09T12:44:10.998Z,103246.75
2023-02-09T12:46:43.238Z,103243.97
2023-02-09T12:49:12.682Z,103247.50
2023-02-09T12:51:54.876Z,103247.59
2023-02-09T12:54:27.322Z,103248.47
2023-02-09T12:56:54.696Z,103244.81
2023-02-09T12:59:24.643Z,103249.41
2023-02-09T13:02:06.141Z,103253.13
2023-02-09T13:05:05.662Z,103250.38
2023-02-09T13:08:00.402Z,103245.19
2023-02-09T13:10:29.814Z,103245.09
2023-02-09T13:13:12.551Z,103245.19
2023-02-09T13:15:51.247Z,103242.56
2023-02-09T13:18:37.954Z,103248.81
2023-02-09T13:21:13.459Z,103247.16
2023-02-09T13:23:56.927Z,103248.19
2023-02-09T13:26:26.983Z,103248.19
2023-02-09T13:29:21.606Z,103250.16
2023-02-09T13:32:13.066Z,103247.47
2023-02-09T13:35:04.440Z,103252.94
2023-02-09T13:37:46.574Z,103257.41
2023-02-09T13:40:34.771Z,103258.44
2023-02-09T13:43:16.136Z,103266.41
2023-02-09T13:45:54.965Z,103257.56
2023-02-09T13:48:36.815Z,103263.88
2023-02-09T13:51:23.659Z,103260.41
2023-02-09T13:53:58.542Z,103265.69
2023-02-09T13:56:25.657Z,103273.78
2023-02-09T13:58:53.328Z,103265.75
2023-02-09T14:01:29.902Z,103262.31
2023-02-09T14:03:58.939Z,103270.34
2023-02-09T14:06:44.601Z,103266.97
2023-02-09T14:09:26.896Z,103267.81
2023-02-09T14:12:05.371Z,103273.19
2023-02-09T14:14:57.876Z,103274.13
2023-02-09T14:17:32.521Z,103269.78
2023-02-09T14:20:00.072Z,103269.78
2023-02-09T14:22:37.956Z,103262.81
2023-02-09T14:25:13.751Z,103268.22
2023-02-09T14:27:45.566Z,103269.09
2023-02-09T14:30:17.053Z,103270.03
2023-02-09T14:32:48.367Z,103272.72
2023-02-09T14:35:20.520Z,103279.03
2023-02-09T14:37:48.513Z,103266.59
2023-02-09T14:40:27.040Z,103281.84
2023-02-09T14:43:01.673Z,103297.91
2023-02-09T14:45:35.830Z,103284.63
2023-02-09T14:48:02.400Z,103291.69
2023-02-09T14:50:28.958Z,103297.09
2023-02-09T14:53:06.707Z,103291.94
2023-02-09T14:55:40.095Z,103299.78
2023-02-09T14:58:28.952Z,103301.69
2023-02-09T15:00:57.724Z,103311.44
2023-02-09T15:03:24.400Z,103302.53
2023-02-09T15:06:00.646Z,103302.53
2023-02-09T15:08:30.148Z,103304.22
2023-02-09T15:11:29.232Z,103301.69
2023-02-09T15:14:03.838Z,103303.41
2023-02-09T15:16:31.539Z,103322.94
2023-02-09T15:18:58.219Z,103317.63
2023-02-09T15:21:24.765Z,103314.09
2023-02-09T15:23:51.293Z,103325.66
2023-02-09T15:26:22.624Z,103318.59
2023-02-09T15:28:49.170Z,103319.53
2023-02-09T15:31:16.382Z,103318.69
2023-02-09T15:33:43.025Z,103325.84
2023-02-09T15:36:16.856Z,103327.72
2023-02-09T15:38:43.243Z,103328.72
2023-02-09T15:41:29.043Z,103325.75
2023-02-09T15:44:14.298Z,103328.53
2023-02-09T15:46:59.605Z,103333.94
2023-02-09T15:49:26.183Z,103346.44
2023-02-09T15:51:52.799Z,103335.84
2023-02-09T15:54:21.873Z,103341.19
2023-02-09T15:56:48.385Z,103342.09
2023-02-09T15:59:20.898Z,103347.53
2023-02-09T16:01:47.848Z,103347.53
2023-02-09T16:04:14.996Z,103352.91
2023-02-09T16:06:53.318Z,103344.09
2023-02-09T16:09:27.571Z,103345.81
2023-02-09T16:11:54.372Z,103344.97
2023-02-09T16:14:23.308Z,103343.22
2023-02-09T16:16:50.118Z,103346.78
2023-02-09T16:19:17.081Z,103348.56
2023-02-09T16:21:50.657Z,103350.47
2023-02-09T16:24:40.984Z,103360.28
2023-02-09T16:27:27.841Z,103366.50
2023-02-09T16:29:55.193Z,103362.03
2023-02-09T16:32:23.677Z,103361.06
2023-02-09T16:34:51.089Z,103371.84
2023-02-09T16:37:23.673Z,103378.06
2023-02-09T16:39:50.264Z,103386.94
2023-02-09T16:42:16.953Z,103387.81
2023-02-09T16:44:43.505Z,103393.09
2023-02-09T16:47:20.421Z,103396.69
2023-02-09T16:50:02.601Z,103402.00
2023-02-09T16:52:30.362Z,103410.88
2023-02-09T16:54:59.853Z,103413.56
2023-02-09T16:57:27.990Z,103414.41
2023-02-09T16:59:55.208Z,103422.44
2023-02-09T17:02:28.036Z,103421.56
2023-02-09T17:04:54.607Z,103423.28
2023-02-09T17:07:24.401Z,103423.28
2023-02-09T17:09:51.162Z,103427.78
2023-02-09T17:12:17.627Z,103424.25
2023-02-09T17:14:44.439Z,103427.88
2023-02-09T17:17:18.075Z,103428.78
2023-02-09T17:19:48.126Z,103429.69
2023-02-09T17:22:15.410Z,103427.88
2023-02-09T17:24:41.917Z,103435.03
2023-02-09T17:27:09.703Z,103438.63
2023-02-09T17:29:36.324Z,103448.47
2023-02-09T17:32:03.464Z,103446.66
2023-02-09T17:34:30.305Z,103447.59
2023-02-09T17:36:58.002Z,103445.78
2023-02-09T17:39:25.184Z,103450.34
2023-02-09T17:41:52.056Z,103450.34
2023-02-09T17:44:43.706Z,103447.75
2023-02-09T17:47:17.060Z,103454.84
2023-02-09T17:49:43.720Z,103459.31
2023-02-09T17:52:18.030Z,103462.94
2023-02-09T17:54:45.463Z,103470.00
2023-02-09T17:57:14.230Z,103470.94
2023-02-09T17:59:40.821Z,103471.81
2023-02-09T18:02:25.872Z,103471.91
2023-02-09T18:04:52.424Z,103467.31
2023-02-09T18:07:20.838Z,103470.91
2023-02-09T18:09:47.605Z,103477.09
2023-02-09T18:12:20.425Z,103483.38
2023-02-09T18:14:47.065Z,103486.94
2023-02-09T18:17:13.777Z,103482.47
2023-02-09T18:19:40.276Z,103488.72
2023-02-09T18:22:06.788Z,103495.81
2023-02-09T18:24:35.189Z,103487.84
2023-02-09T18:27:02.248Z,103495.88
2023-02-09T18:29:30.036Z,103495.97
2023-02-09T18:31:59.026Z,103503.13
2023-02-09T18:34:26.223Z,103502.25
2023-02-09T18:36:52.741Z,103503.19
2023-02-09T18:39:19.461Z,103499.66
2023-02-09T18:41:48.338Z,103501.47
2023-02-09T18:44:14.870Z,103498.88
2023-02-09T18:46:43.205Z,103513.09
2023-02-09T18:49:12.356Z,103500.72
2023-02-09T18:51:38.895Z,103513.25
2023-02-09T18:54:05.641Z,103518.59
2023-02-09T18:56:32.291Z,103517.81
2023-02-09T18:58:58.970Z,103531.19
2023-02-09T19:01:25.540Z,103526.75
2023-02-09T19:03:53.453Z,103526.75
2023-02-09T19:06:21.347Z,103532.09
2023-02-09T19:08:50.138Z,103534.00
2023-02-09T19:11:19.284Z,103536.66
2023-02-09T19:14:08.772Z,103535.84
2023-02-09T19:16:36.657Z,103530.44
2023-02-09T19:19:03.600Z,103537.66
2023-02-09T19:21:31.764Z,103538.63
2023-02-09T19:23:58.336Z,103549.34
2023-02-09T19:26:24.827Z,103546.69
2023-02-09T19:28:51.440Z,103543.13
2023-02-09T19:31:18.611Z,103538.72
2023-02-09T19:33:45.330Z,103552.16
2023-02-09T19:36:12.339Z,103542.34
2023-02-09T19:38:38.892Z,103546.81
2023-02-09T19:41:11.787Z,103545.09
2023-02-09T19:43:39.929Z,103546.88
2023-02-09T19:46:07.558Z,103544.19
2023-02-09T19:48:34.165Z,103550.50
2023-02-09T19:51:00.856Z,103555.84
2023-02-09T19:53:27.977Z,103565.66
2023-02-09T19:55:54.805Z,103563.06
2023-02-09T19:58:21.734Z,103569.28
2023-02-09T20:00:49.773Z,103567.56
2023-02-09T20:03:17.076Z,103580.03
2023-02-09T20:05:44.744Z,103584.50
2023-02-09T20:08:15.698Z,103585.38
2023-02-09T20:10:44.265Z,103581.06
2023-02-09T20:13:12.861Z,103583.72
2023-02-09T20:15:44.106Z,103582.00
2023-02-09T20:18:12.637Z,103590.03
2023-02-09T20:20:41.724Z,103580.25
2023-02-09T20:23:08.862Z,103583.88
2023-02-09T20:25:35.445Z,103579.47
2023-02-09T20:28:02.139Z,103583.88
2023-02-09T20:30:28.732Z,103583.09
2023-02-09T20:32:55.272Z,103596.44
2023-02-09T20:35:21.818Z,103596.44
2023-02-09T20:37:48.551Z,103602.72
2023-02-09T20:40:15.328Z,103605.38
2023-02-09T20:43:00.466Z,103604.50
2023-02-09T20:45:45.760Z,103602.78
2023-02-09T20:48:13.649Z,103612.66
2023-02-09T20:50:40.238Z,103610.88
2023-02-09T20:53:06.905Z,103607.31
2023-02-09T20:55:33.476Z,103610.06
2023-02-09T20:58:00.019Z,103618.94
2023-02-09T21:00:26.775Z,103623.44
2023-02-09T21:02:53.431Z,103623.50
2023-02-09T21:05:20.087Z,103623.56
2023-02-09T21:07:46.702Z,103619.09
2023-02-09T21:10:13.265Z,103616.50
2023-02-09T21:12:39.985Z,103623.66
2023-02-09T21:15:06.961Z,103620.97
2023-02-09T21:17:33.543Z,103628.13
2023-02-09T21:20:00.190Z,103635.28
2023-02-09T21:22:26.783Z,103636.19
2023-02-09T21:24:53.395Z,103640.66
2023-02-09T21:27:20.470Z,103625.59
2023-02-09T21:29:47.101Z,103627.31
2023-02-09T21:32:13.737Z,103625.59
2023-02-09T21:34:40.233Z,103624.72
2023-02-09T21:37:10.195Z,103634.53
2023-02-09T21:39:36.799Z,103639.03
2023-02-09T21:42:22.202Z,103633.72
2023-02-09T21:44:48.813Z,103643.56
2023-02-09T21:47:15.460Z,103641.81
2023-02-09T21:49:41.944Z,103642.69
2023-02-09T21:52:08.458Z,103648.97
2023-02-09T21:54:34.955Z,103648.09
2023-02-09T21:57:02.185Z,103647.28
2023-02-09T21:59:29.380Z,103647.22
2023-02-09T22:01:56.441Z,103642.81
2023-02-09T22:04:23.090Z,103638.41
2023-02-09T22:06:49.954Z,103635.75
2023-02-09T22:09:16.552Z,103638.41
2023-02-09T22:11:43.075Z,103635.75
2023-02-09T22:14:09.587Z,103634.91
2023-02-09T22:16:36.211Z,103631.47
2023-02-09T22:19:03.322Z,103627.81
2023-02-09T22:21:29.837Z,103626.13
2023-02-09T22:23:56.401Z,103626.13
2023-02-09T22:26:23.040Z,103627.00
2023-02-09T22:28:49.755Z,103632.41
2023-02-09T22:31:18.624Z,103629.78
2023-02-09T22:33:45.457Z,103627.97
2023-02-09T22:36:14.836Z,103621.84
2023-02-09T22:38:41.394Z,103627.13
2023-02-09T22:41:22.420Z,103622.78
2023-02-09T22:43:59.213Z,103629.00
2023-02-09T22:46:29.120Z,103636.16
2023-02-09T22:48:57.793Z,103634.38
2023-02-09T22:51:26.901Z,103630.00
2023-02-09T22:53:53.663Z,103644.16
2023-02-09T22:56:20.564Z,103637.13
2023-02-09T22:58:47.380Z,103644.28
2023-02-09T23:01:14.017Z,103638.94
2023-02-09T23:03:41.074Z,103642.56
2023-02-09T23:06:10.816Z,103643.44
2023-02-09T23:08:37.370Z,103651.47
2023-02-09T23:11:06.713Z,103654.22
2023-02-09T23:13:34.833Z,103653.28
2023-02-09T23:16:19.567Z,103649.75
2023-02-09T23:18:51.838Z,103642.69
2023-02-09T23:21:20.222Z,103655.09
2023-02-09T23:23:46.779Z,103648.03
2023-02-09T23:26:14.792Z,103653.38
2023-02-09T23:28:41.491Z,103655.19
2023-02-09T23:31:13.373Z,103656.97
2023-02-09T23:33:40.244Z,103650.78
2023-02-09T23:36:10.081Z,103655.31
2023-02-09T23:38:37.022Z,103649.97
2023-02-09T23:41:08.524Z,103652.63
2023-02-09T23:43:36.020Z,103653.56
2023-02-09T23:46:08.884Z,103649.09
2023-02-09T23:48:35.523Z,103660.72
2023-02-09T23:51:11.281Z,103660.72
2023-02-09T23:53:37.773Z,103668.72
2023-02-09T23:56:04.692Z,103661.63
2023-02-09T23:58:36.709Z,103666.09
